createdAt,value
2023-05-01T00:00:54.226Z,80.45
2023-05-01T00:01:54.224Z,80.48
2023-05-01T00:02:54.317Z,80.85
2023-05-01T00:03:54.492Z,80.85
2023-05-01T00:04:54.165Z,81.24
2023-05-01T00:05:54.235Z,81.12
2023-05-01T00:06:54.183Z,81.25
2023-05-01T00:07:54.172Z,81.14
2023-05-01T00:08:54.119Z,81.32
2023-05-01T00:10:54.089Z,81.48
2023-05-01T00:11:54.152Z,81.88
2023-05-01T00:12:54.035Z,82.01
2023-05-01T00:13:54.097Z,82.06
2023-05-01T00:14:54.013Z,82.10
2023-05-01T00:15:54.186Z,82.21
2023-05-01T00:16:54.065Z,82.25
2023-05-01T00:17:54.144Z,82.29
2023-05-01T00:18:54.033Z,82.36
2023-05-01T00:19:54.380Z,82.52
2023-05-01T00:20:53.945Z,82.82
2023-05-01T00:21:53.960Z,82.88
2023-05-01T00:22:53.916Z,83.03
2023-05-01T00:23:55.047Z,82.80
2023-05-01T00:24:53.886Z,82.54
2023-05-01T00:25:54.001Z,82.03
2023-05-01T00:26:53.856Z,82.25
2023-05-01T00:27:53.891Z,82.32
2023-05-01T00:28:53.843Z,82.34
2023-05-01T00:29:54.189Z,82.21
2023-05-01T00:30:53.803Z,82.35
2023-05-01T00:31:53.869Z,82.40
2023-05-01T00:32:53.860Z,82.24
2023-05-01T00:33:53.842Z,82.23
2023-05-01T00:34:53.760Z,82.29
2023-05-01T00:35:53.806Z,82.16
2023-05-01T00:36:53.733Z,82.19
2023-05-01T00:37:53.781Z,82.33
2023-05-01T00:38:53.713Z,82.64
2023-05-01T00:39:53.971Z,82.88
2023-05-01T00:40:53.683Z,82.98
2023-05-01T00:41:53.766Z,83.06
2023-05-01T00:42:53.658Z,83.02
2023-05-01T00:43:53.712Z,82.92
2023-05-01T00:44:53.654Z,83.11
2023-05-01T00:45:53.736Z,82.81
2023-05-01T00:46:53.606Z,82.74
2023-05-01T00:47:53.763Z,82.62
2023-05-01T00:48:53.595Z,82.34
2023-05-01T00:49:53.870Z,82.20
2023-05-01T00:50:53.557Z,82.45
2023-05-01T00:51:53.568Z,82.39
2023-05-01T00:52:53.524Z,82.60
2023-05-01T00:53:53.636Z,82.64
2023-05-01T00:54:53.504Z,82.69
2023-05-01T00:55:55.583Z,82.64
2023-05-01T00:56:53.479Z,82.52
2023-05-01T00:57:53.496Z,82.86
2023-05-01T00:58:53.448Z,82.50
2023-05-01T00:59:53.537Z,82.42
2023-05-01T01:00:53.470Z,82.69
2023-05-01T01:01:55.640Z,82.99
2023-05-01T01:02:53.469Z,83.10
2023-05-01T01:03:55.618Z,82.97
2023-05-01T01:04:53.411Z,82.97
2023-05-01T01:05:53.449Z,83.23
2023-05-01T01:06:53.347Z,82.94
2023-05-01T01:07:53.369Z,83.16
2023-05-01T01:08:53.308Z,83.11
2023-05-01T01:09:53.493Z,83.13
2023-05-01T01:10:53.299Z,83.31
2023-05-01T01:11:53.366Z,83.39
2023-05-01T01:12:53.252Z,83.23
2023-05-01T01:13:53.325Z,83.25
2023-05-01T01:14:53.237Z,83.16
2023-05-01T01:15:53.324Z,83.23
2023-05-01T01:16:53.260Z,83.00
2023-05-01T01:17:53.324Z,83.13
2023-05-01T01:18:53.183Z,83.12
2023-05-01T01:19:53.506Z,82.82
2023-05-01T01:20:53.167Z,82.95
2023-05-01T01:21:53.163Z,83.15
2023-05-01T01:22:53.126Z,82.96
2023-05-01T01:23:53.236Z,83.16
2023-05-01T01:24:53.108Z,83.19
2023-05-01T01:25:55.196Z,83.21
2023-05-01T01:26:53.071Z,83.16
2023-05-01T01:27:53.100Z,83.31
2023-05-01T01:28:53.063Z,83.24
2023-05-01T01:29:53.200Z,83.46
2023-05-01T01:30:53.041Z,83.82
2023-05-01T01:31:53.031Z,83.68
2023-05-01T01:32:53.034Z,83.88
2023-05-01T01:33:53.040Z,83.84
2023-05-01T01:34:52.959Z,83.76
2023-05-01T01:35:53.012Z,83.68
2023-05-01T01:36:52.940Z,83.61
2023-05-01T01:37:52.989Z,83.83
2023-05-01T01:38:52.935Z,83.73
2023-05-01T01:39:54.437Z,83.82
2023-05-01T01:40:52.883Z,84.08
2023-05-01T01:41:52.968Z,84.11
2023-05-01T01:42:52.887Z,84.00
2023-05-01T01:43:52.934Z,84.28
2023-05-01T01:44:52.865Z,84.31
2023-05-01T01:45:52.990Z,84.31
2023-05-01T01:46:52.811Z,84.18
2023-05-01T01:47:52.957Z,84.16
2023-05-01T01:48:52.877Z,84.08
2023-05-01T01:49:52.954Z,84.12
2023-05-01T01:50:52.761Z,84.20
2023-05-01T01:51:52.773Z,83.84
2023-05-01T01:52:52.750Z,83.65
2023-05-01T01:53:53.856Z,83.47
2023-05-01T01:54:52.723Z,83.32
2023-05-01T01:55:52.799Z,83.46
2023-05-01T01:56:52.680Z,83.55
2023-05-01T01:57:52.734Z,83.86
2023-05-01T01:58:52.657Z,83.75
2023-05-01T01:59:52.830Z,83.63
2023-05-01T02:00:52.620Z,83.80
2023-05-01T02:01:52.668Z,83.95
2023-05-01T02:02:52.782Z,84.03
2023-05-01T02:03:52.706Z,84.17
2023-05-01T02:04:52.589Z,84.35
2023-05-01T02:05:52.621Z,84.41
2023-05-01T02:06:52.657Z,84.62
2023-05-01T02:07:52.596Z,84.60
2023-05-01T02:08:52.535Z,84.48
2023-05-01T02:09:54.974Z,84.25
2023-05-01T02:10:52.513Z,84.49
2023-05-01T02:11:52.581Z,84.50
2023-05-01T02:12:52.493Z,84.18
2023-05-01T02:13:54.617Z,84.53
2023-05-01T02:14:52.454Z,84.27
2023-05-01T02:15:52.547Z,84.44
2023-05-01T02:16:52.430Z,84.34
2023-05-01T02:17:52.665Z,84.50
2023-05-01T02:18:52.398Z,84.55
2023-05-01T02:19:52.456Z,84.58
2023-05-01T02:20:52.372Z,84.60
2023-05-01T02:21:52.394Z,84.53
2023-05-01T02:22:52.422Z,84.66
2023-05-01T02:23:52.459Z,84.65
2023-05-01T02:24:52.324Z,84.67
2023-05-01T02:25:52.426Z,84.62
2023-05-01T02:26:52.328Z,84.62
2023-05-01T02:27:52.322Z,84.53
2023-05-01T02:28:52.274Z,84.34
2023-05-01T02:29:52.394Z,84.41
2023-05-01T02:30:52.240Z,84.65
2023-05-01T02:31:53.309Z,84.60
2023-05-01T02:32:52.276Z,84.57
2023-05-01T02:33:52.303Z,84.67
2023-05-01T02:34:52.202Z,84.47
2023-05-01T02:35:52.219Z,84.40
2023-05-01T02:36:52.175Z,84.38
2023-05-01T02:37:52.183Z,84.42
2023-05-01T02:38:52.153Z,84.71
2023-05-01T02:39:52.201Z,84.68
2023-05-01T02:40:52.115Z,84.96
2023-05-01T02:41:52.226Z,85.19
2023-05-01T02:42:52.069Z,84.98
2023-05-01T02:43:52.131Z,84.99
2023-05-01T02:44:52.051Z,84.81
2023-05-01T02:45:53.214Z,84.70
2023-05-01T02:46:52.064Z,84.62
2023-05-01T02:47:52.133Z,84.39
2023-05-01T02:48:52.120Z,84.06
2023-05-01T02:49:52.240Z,83.92
2023-05-01T02:50:52.128Z,83.78
2023-05-01T02:51:52.014Z,84.04
2023-05-01T02:52:51.956Z,84.39
2023-05-01T02:53:52.051Z,84.13
2023-05-01T02:54:51.917Z,84.18
2023-05-01T02:55:52.031Z,84.11
2023-05-01T02:56:52.009Z,84.36
2023-05-01T02:57:52.002Z,84.63
2023-05-01T02:58:51.873Z,84.96
2023-05-01T02:59:51.988Z,85.04
2023-05-01T03:00:51.919Z,85.20
2023-05-01T03:01:51.956Z,85.39
2023-05-01T03:02:51.835Z,85.52
2023-05-01T03:03:51.899Z,85.34
2023-05-01T03:04:51.787Z,85.18
2023-05-01T03:05:51.856Z,85.27
2023-05-01T03:06:51.934Z,85.28
2023-05-01T03:07:52.832Z,85.22
2023-05-01T03:08:51.741Z,85.12
2023-05-01T03:09:51.820Z,85.08
2023-05-01T03:10:51.716Z,85.11
2023-05-01T03:11:51.773Z,85.30
2023-05-01T03:12:51.694Z,85.37
2023-05-01T03:13:51.742Z,85.10
2023-05-01T03:14:51.655Z,85.20
2023-05-01T03:15:51.857Z,85.02
2023-05-01T03:16:51.697Z,84.88
2023-05-01T03:17:51.789Z,84.96
2023-05-01T03:18:51.617Z,84.89
2023-05-01T03:19:51.697Z,85.13
2023-05-01T03:20:51.579Z,85.13
2023-05-01T03:21:51.584Z,85.03
2023-05-01T03:22:51.569Z,84.85
2023-05-01T03:23:52.689Z,84.89
2023-05-01T03:24:51.535Z,84.86
2023-05-01T03:25:51.631Z,85.18
2023-05-01T03:26:51.513Z,85.57
2023-05-01T03:27:53.111Z,85.77
2023-05-01T03:28:51.674Z,85.86
2023-05-01T03:29:51.603Z,85.83
2023-05-01T03:30:51.464Z,85.61
2023-05-01T03:31:51.497Z,85.48
2023-05-01T03:32:51.483Z,85.32
2023-05-01T03:33:51.463Z,85.34
2023-05-01T03:34:51.414Z,85.29
2023-05-01T03:35:51.451Z,85.16
2023-05-01T03:36:51.380Z,85.29
2023-05-01T03:37:51.418Z,85.48
2023-05-01T03:38:51.364Z,85.63
2023-05-01T03:39:51.408Z,85.64
2023-05-01T03:40:51.308Z,85.46
2023-05-01T03:41:51.394Z,85.35
2023-05-01T03:42:51.289Z,85.17
2023-05-01T03:43:51.336Z,85.25
2023-05-01T03:44:51.264Z,85.27
2023-05-01T03:45:51.455Z,85.18
2023-05-01T03:46:51.273Z,85.49
2023-05-01T03:47:51.386Z,85.48
2023-05-01T03:48:51.246Z,85.33
2023-05-01T03:49:51.297Z,85.51
2023-05-01T03:50:51.205Z,85.56
2023-05-01T03:51:51.194Z,85.81
2023-05-01T03:52:51.166Z,85.93
2023-05-01T03:53:51.309Z,85.81
2023-05-01T03:54:51.156Z,85.73
2023-05-01T03:55:52.149Z,85.63
2023-05-01T03:56:51.117Z,85.62
2023-05-01T03:57:51.122Z,85.82
2023-05-01T03:58:51.094Z,85.89
2023-05-01T03:59:52.133Z,85.73
2023-05-01T04:00:51.086Z,85.92
2023-05-01T04:01:51.079Z,85.91
2023-05-01T04:02:51.294Z,85.82
2023-05-01T04:03:52.282Z,85.93
2023-05-01T04:04:51.003Z,85.61
2023-05-01T04:05:51.062Z,85.78
2023-05-01T04:06:51.139Z,85.75
2023-05-01T04:07:51.005Z,85.77
2023-05-01T04:08:51.162Z,85.78
2023-05-01T04:09:51.016Z,85.90
2023-05-01T04:10:51.086Z,85.85
2023-05-01T04:11:53.041Z,85.87
2023-05-01T04:12:50.902Z,85.91
2023-05-01T04:13:50.968Z,85.97
2023-05-01T04:14:50.882Z,85.90
2023-05-01T04:15:50.987Z,85.81
2023-05-01T04:16:50.858Z,85.64
2023-05-01T04:17:50.954Z,85.74
2023-05-01T04:18:50.823Z,85.69
2023-05-01T04:19:51.909Z,85.88
2023-05-01T04:20:50.794Z,85.98
2023-05-01T04:21:50.882Z,86.28
2023-05-01T04:22:50.782Z,86.53
2023-05-01T04:23:52.815Z,86.51
2023-05-01T04:24:50.750Z,86.50
2023-05-01T04:25:50.820Z,86.54
2023-05-01T04:26:50.757Z,86.35
2023-05-01T04:27:52.849Z,86.15
2023-05-01T04:28:50.763Z,86.28
2023-05-01T04:29:50.822Z,86.34
2023-05-01T04:30:50.656Z,86.12
2023-05-01T04:31:51.737Z,85.86
2023-05-01T04:32:50.723Z,85.68
2023-05-01T04:33:50.670Z,85.88
2023-05-01T04:34:50.604Z,85.92
2023-05-01T04:35:51.713Z,86.08
2023-05-01T04:36:50.573Z,85.96
2023-05-01T04:39:25.957Z,86.14
2023-05-01T04:40:04.834Z,86.14
2023-05-01T04:41:04.917Z,86.16
2023-05-01T04:42:04.849Z,86.11
2023-05-01T04:43:04.890Z,86.17
2023-05-01T04:44:04.803Z,86.33
2023-05-01T04:45:05.805Z,86.38
2023-05-01T04:46:04.819Z,86.33
2023-05-01T04:47:04.868Z,86.33
2023-05-01T04:48:04.807Z,86.44
2023-05-01T04:49:04.850Z,86.58
2023-05-01T04:50:04.699Z,86.73
2023-05-01T04:51:04.747Z,86.64
2023-05-01T04:52:04.671Z,86.64
2023-05-01T04:53:04.794Z,86.64
2023-05-01T04:54:04.665Z,86.64
2023-05-01T04:55:04.656Z,86.47
2023-05-01T04:56:04.621Z,86.34
2023-05-01T04:57:04.669Z,86.41
2023-05-01T04:58:04.630Z,86.47
2023-05-01T04:59:05.681Z,86.54
2023-05-01T05:00:04.577Z,86.44
2023-05-01T05:01:04.614Z,86.51
2023-05-01T05:02:04.557Z,86.56
2023-05-01T05:03:05.731Z,86.70
2023-05-01T05:04:04.583Z,86.75
2023-05-01T05:05:04.576Z,86.85
2023-05-01T05:06:04.552Z,87.19
2023-05-01T05:07:04.546Z,87.43
2023-05-01T05:08:04.464Z,87.47
2023-05-01T05:09:04.546Z,87.26
2023-05-01T05:10:04.452Z,86.98
2023-05-01T05:11:04.524Z,86.77
2023-05-01T05:12:04.405Z,86.42
2023-05-01T05:13:06.473Z,86.40
2023-05-01T05:14:04.393Z,86.24
2023-05-01T05:15:04.393Z,86.29
2023-05-01T05:16:04.414Z,86.30
2023-05-01T05:17:04.455Z,86.43
2023-05-01T05:18:04.339Z,86.58
2023-05-01T05:19:05.387Z,86.62
2023-05-01T05:20:04.315Z,86.79
2023-05-01T05:21:04.326Z,86.95
2023-05-01T05:22:04.323Z,87.09
2023-05-01T05:23:04.405Z,87.11
2023-05-01T05:24:04.253Z,87.14
2023-05-01T05:25:04.463Z,87.17
2023-05-01T05:26:04.229Z,87.17
2023-05-01T05:27:04.259Z,87.18
2023-05-01T05:28:04.212Z,87.07
2023-05-01T05:29:04.241Z,87.01
2023-05-01T05:30:04.167Z,86.86
2023-05-01T05:31:04.190Z,86.85
2023-05-01T05:32:04.191Z,87.02
2023-05-01T05:33:04.245Z,87.05
2023-05-01T05:34:04.113Z,86.93
2023-05-01T05:35:04.176Z,86.01
2023-05-01T05:36:04.098Z,86.01
2023-05-01T05:37:04.137Z,85.89
2023-05-01T05:38:04.073Z,85.75
2023-05-01T05:39:04.191Z,84.75
2023-05-01T05:40:04.036Z,83.96
2023-05-01T05:41:04.123Z,83.68
2023-05-01T05:42:04.004Z,82.63
2023-05-01T05:43:05.123Z,82.27
2023-05-01T05:44:04.035Z,82.24
2023-05-01T05:45:03.996Z,77.91
2023-05-01T05:46:03.970Z,77.98
2023-05-01T05:47:04.075Z,76.70
2023-05-01T05:48:03.972Z,76.60
2023-05-01T05:49:04.039Z,77.02
2023-05-01T05:50:03.911Z,77.46
2023-05-01T05:51:04.058Z,79.53
2023-05-01T05:52:03.877Z,79.85
2023-05-01T05:53:05.951Z,77.25
2023-05-01T05:54:03.859Z,75.97
2023-05-01T05:55:03.976Z,75.45
2023-05-01T05:56:03.834Z,74.38
2023-05-01T05:57:03.888Z,76.39
2023-05-01T05:58:03.840Z,77.73
2023-05-01T05:59:06.008Z,75.21
2023-05-01T06:00:03.797Z,73.63
2023-05-01T06:01:03.856Z,73.87
2023-05-01T06:02:03.856Z,74.54
2023-05-01T06:03:03.942Z,72.07
2023-05-01T06:04:03.794Z,71.91
2023-05-01T06:05:03.825Z,70.92
2023-05-01T06:06:03.829Z,71.13
2023-05-01T06:07:03.799Z,72.86
2023-05-01T06:08:03.727Z,71.45
2023-05-01T06:09:03.826Z,70.92
2023-05-01T06:10:03.639Z,70.82
2023-05-01T06:11:03.725Z,69.97
2023-05-01T06:12:03.645Z,69.80
2023-05-01T06:13:13.943Z,71.77
2023-05-01T06:14:04.568Z,71.26
2023-05-01T06:15:03.600Z,71.06
2023-05-01T06:16:03.640Z,72.51
2023-05-01T06:17:03.674Z,72.79
2023-05-01T06:18:03.640Z,72.12
2023-05-01T06:19:03.645Z,73.40
2023-05-01T06:20:03.549Z,71.54
2023-05-01T06:21:03.536Z,71.83
2023-05-01T06:22:03.479Z,72.31
2023-05-01T06:23:03.606Z,71.90
2023-05-01T06:24:03.470Z,70.84
2023-05-01T06:25:04.498Z,70.08
2023-05-01T06:26:03.446Z,70.95
2023-05-01T06:27:03.500Z,71.74
2023-05-01T06:28:03.477Z,72.06
2023-05-01T06:29:03.456Z,71.78
2023-05-01T06:30:03.376Z,71.90
2023-05-01T06:31:03.488Z,70.30
2023-05-01T06:32:03.334Z,70.72
2023-05-01T06:33:03.514Z,70.24
2023-05-01T06:34:03.322Z,70.23
2023-05-01T06:35:03.414Z,70.34
2023-05-01T06:36:03.338Z,69.94
2023-05-01T06:37:03.345Z,69.94
2023-05-01T06:38:03.259Z,70.50
2023-05-01T06:39:03.263Z,71.39
2023-05-01T06:40:03.251Z,70.00
2023-05-01T06:41:03.336Z,70.56
2023-05-01T06:42:03.230Z,70.46
2023-05-01T06:43:03.304Z,70.13
2023-05-01T06:44:03.179Z,71.11
2023-05-01T06:45:03.192Z,71.25
2023-05-01T06:46:03.218Z,70.08
2023-05-01T06:47:03.312Z,68.78
2023-05-01T06:48:03.166Z,68.64
2023-05-01T06:49:03.155Z,68.09
2023-05-01T06:50:05.252Z,68.44
2023-05-01T06:51:04.226Z,68.26
2023-05-01T06:52:03.070Z,69.44
2023-05-01T06:53:03.315Z,69.24
2023-05-01T06:54:03.083Z,68.79
2023-05-01T06:55:03.083Z,68.32
2023-05-01T06:56:03.038Z,66.70
2023-05-01T06:57:03.077Z,67.63
2023-05-01T06:58:09.793Z,66.97
2023-05-01T06:59:04.009Z,67.36
2023-05-01T07:00:02.984Z,68.62
2023-05-01T07:01:03.019Z,67.07
2023-05-01T07:02:03.003Z,67.75
2023-05-01T07:03:03.079Z,66.96
2023-05-01T07:04:02.937Z,65.39
2023-05-01T07:05:03.024Z,66.13
2023-05-01T07:06:02.942Z,66.56
2023-05-01T07:07:05.146Z,66.70
2023-05-01T07:08:02.849Z,67.29
2023-05-01T07:09:03.897Z,67.12
2023-05-01T07:10:02.820Z,66.22
2023-05-01T07:11:02.942Z,65.68
2023-05-01T07:12:02.807Z,66.24
2023-05-01T07:13:02.885Z,67.15
2023-05-01T07:14:02.789Z,67.77
2023-05-01T07:15:02.836Z,67.80
2023-05-01T07:16:02.833Z,66.89
2023-05-01T07:17:02.898Z,65.05
2023-05-01T07:18:02.899Z,65.86
2023-05-01T07:19:02.768Z,67.01
2023-05-01T07:20:02.705Z,67.01
2023-05-01T07:21:02.779Z,66.99
2023-05-01T07:22:02.692Z,67.02
2023-05-01T07:23:03.526Z,66.67
2023-05-01T07:24:02.807Z,66.49
2023-05-01T07:25:02.684Z,65.65
2023-05-01T07:26:02.609Z,65.93
2023-05-01T07:27:02.691Z,65.83
2023-05-01T07:28:02.596Z,65.43
2023-05-01T07:29:02.664Z,65.86
2023-05-01T07:30:02.605Z,65.53
2023-05-01T07:31:02.654Z,65.11
2023-05-01T07:32:02.620Z,66.94
2023-05-01T07:33:02.734Z,67.32
2023-05-01T07:34:02.569Z,67.42
2023-05-01T07:35:02.603Z,66.36
2023-05-01T07:36:02.493Z,67.59
2023-05-01T07:37:02.577Z,68.15
2023-05-01T07:38:02.511Z,66.61
2023-05-01T07:39:02.519Z,66.90
2023-05-01T07:40:02.476Z,66.50
2023-05-01T07:41:02.591Z,66.26
2023-05-01T07:42:02.402Z,66.60
2023-05-01T07:43:02.514Z,67.05
2023-05-01T07:44:02.461Z,68.37
2023-05-01T07:45:02.408Z,67.15
2023-05-01T07:46:02.413Z,66.96
2023-05-01T07:47:02.422Z,67.68
2023-05-01T07:48:02.354Z,66.81
2023-05-01T07:49:02.347Z,65.88
2023-05-01T07:50:02.287Z,67.43
2023-05-01T07:51:02.347Z,66.83
2023-05-01T07:52:02.282Z,67.64
2023-05-01T07:53:02.390Z,67.34
2023-05-01T07:54:02.254Z,65.56
2023-05-01T07:55:02.288Z,66.70
2023-05-01T07:56:02.213Z,67.35
2023-05-01T07:57:02.299Z,67.11
2023-05-01T07:58:02.182Z,67.21
2023-05-01T07:59:02.305Z,67.95
2023-05-01T08:00:02.187Z,67.70
2023-05-01T08:01:02.234Z,68.07
2023-05-01T08:02:02.210Z,66.82
2023-05-01T08:03:02.347Z,65.83
2023-05-01T08:04:02.244Z,67.79
2023-05-01T08:05:02.286Z,65.83
2023-05-01T08:06:02.111Z,65.88
2023-05-01T08:07:02.186Z,67.28
2023-05-01T08:08:02.052Z,66.70
2023-05-01T08:09:02.064Z,65.72
2023-05-01T08:10:02.299Z,66.70
2023-05-01T08:11:02.165Z,65.89
2023-05-01T08:12:01.984Z,65.49
2023-05-01T08:13:03.023Z,65.81
2023-05-01T08:14:01.974Z,65.57
2023-05-01T08:15:02.080Z,66.55
2023-05-01T08:16:01.967Z,66.28
2023-05-01T08:17:02.120Z,65.92
2023-05-01T08:18:01.972Z,66.61
2023-05-01T08:19:01.941Z,65.82
2023-05-01T08:20:01.890Z,64.92
2023-05-01T08:21:01.966Z,64.84
2023-05-01T08:22:01.889Z,64.15
2023-05-01T08:23:01.928Z,64.64
2023-05-01T08:24:01.835Z,64.38
2023-05-01T08:25:01.882Z,64.43
2023-05-01T08:26:01.875Z,63.40
2023-05-01T08:27:01.892Z,63.31
2023-05-01T08:28:01.808Z,62.80
2023-05-01T08:29:01.856Z,63.35
2023-05-01T08:30:01.840Z,63.54
2023-05-01T08:31:01.890Z,63.15
2023-05-01T08:32:01.818Z,63.45
2023-05-01T08:33:01.796Z,61.74
2023-05-01T08:34:01.720Z,61.94
2023-05-01T08:35:01.805Z,62.10
2023-05-01T08:36:01.665Z,62.06
2023-05-01T08:37:01.777Z,61.85
2023-05-01T08:38:01.721Z,62.24
2023-05-01T08:39:01.703Z,62.79
2023-05-01T08:40:01.639Z,62.32
2023-05-01T08:41:01.763Z,62.52
2023-05-01T08:42:01.605Z,61.52
2023-05-01T08:43:01.606Z,62.01
2023-05-01T08:44:01.572Z,62.31
2023-05-01T08:45:01.640Z,60.69
2023-05-01T08:46:01.572Z,60.81
2023-05-01T08:47:01.784Z,60.38
2023-05-01T08:48:01.556Z,60.00
2023-05-01T08:49:01.541Z,58.90
2023-05-01T08:50:01.486Z,60.77
2023-05-01T08:51:01.575Z,60.71
2023-05-01T08:52:01.524Z,58.51
2023-05-01T08:53:01.526Z,57.01
2023-05-01T08:54:01.441Z,56.96
2023-05-01T08:55:01.510Z,55.59
2023-05-01T08:56:01.437Z,56.14
2023-05-01T08:57:01.500Z,56.44
2023-05-01T08:58:01.359Z,56.56
2023-05-01T08:59:01.485Z,57.43
2023-05-01T09:00:01.344Z,57.74
2023-05-01T09:01:01.417Z,58.99
2023-05-01T09:02:01.570Z,56.56
2023-05-01T09:03:01.426Z,56.95
2023-05-01T09:04:01.326Z,58.83
2023-05-01T09:05:01.433Z,59.56
2023-05-01T09:06:01.293Z,56.41
2023-05-01T09:07:01.280Z,55.75
2023-05-01T09:08:01.241Z,59.43
2023-05-01T09:09:01.282Z,58.55
2023-05-01T09:10:01.221Z,56.40
2023-05-01T09:11:03.295Z,59.09
2023-05-01T09:12:01.209Z,56.12
2023-05-01T09:13:01.221Z,56.65
2023-05-01T09:14:01.159Z,57.02
2023-05-01T09:15:01.201Z,58.49
2023-05-01T09:16:01.229Z,58.85
2023-05-01T09:17:01.200Z,54.98
2023-05-01T09:18:03.575Z,55.13
2023-05-01T09:19:01.157Z,55.68
2023-05-01T09:20:01.087Z,54.75
2023-05-01T09:21:01.187Z,55.64
2023-05-01T09:22:01.100Z,55.10
2023-05-01T09:23:01.134Z,55.82
2023-05-01T09:24:01.026Z,55.10
2023-05-01T09:25:01.092Z,57.15
2023-05-01T09:26:00.998Z,57.08
2023-05-01T09:27:01.005Z,56.10
2023-05-01T09:28:00.973Z,56.43
2023-05-01T09:29:02.208Z,54.81
2023-05-01T09:30:00.954Z,55.27
2023-05-01T09:31:01.055Z,56.27
2023-05-01T09:32:00.984Z,54.19
2023-05-01T09:33:01.127Z,55.43
2023-05-01T09:34:01.004Z,54.91
2023-05-01T09:35:01.022Z,54.30
2023-05-01T09:36:00.867Z,52.66
2023-05-01T09:37:00.876Z,53.81
2023-05-01T09:38:00.836Z,55.44
2023-05-01T09:39:00.913Z,53.66
2023-05-01T09:40:00.816Z,55.97
2023-05-01T09:41:00.851Z,53.45
2023-05-01T09:42:00.794Z,54.19
2023-05-01T09:43:00.804Z,55.58
2023-05-01T09:44:00.743Z,52.65
2023-05-01T09:45:00.844Z,52.30
2023-05-01T09:46:00.775Z,51.40
2023-05-01T09:47:00.808Z,51.89
2023-05-01T09:48:00.714Z,51.17
2023-05-01T09:49:00.743Z,51.38
2023-05-01T09:50:00.664Z,52.65
2023-05-01T09:51:00.777Z,52.89
2023-05-01T09:52:00.643Z,55.77
2023-05-01T09:53:00.933Z,54.24
2023-05-01T09:54:00.634Z,53.85
2023-05-01T09:55:00.727Z,53.54
2023-05-01T09:56:00.597Z,53.55
2023-05-01T09:57:01.629Z,52.39
2023-05-01T09:58:00.569Z,52.96
2023-05-01T09:59:00.684Z,52.55
2023-05-01T10:00:00.538Z,52.80
2023-05-01T10:01:00.679Z,54.76
2023-05-01T10:02:00.571Z,51.95
2023-05-01T10:03:00.672Z,52.54
2023-05-01T10:04:00.541Z,52.84
2023-05-01T10:05:00.514Z,52.20
2023-05-01T10:06:00.512Z,52.69
2023-05-01T10:07:00.529Z,53.49
2023-05-01T10:08:00.441Z,53.71
2023-05-01T10:09:00.484Z,54.45
2023-05-01T10:10:01.713Z,51.66
2023-05-01T10:11:00.453Z,52.45
2023-05-01T10:12:00.371Z,52.77
2023-05-01T10:13:00.437Z,54.23
2023-05-01T10:14:00.371Z,54.83
2023-05-01T10:15:05.436Z,53.08
2023-05-01T10:16:01.431Z,52.42
2023-05-01T10:17:00.407Z,52.53
2023-05-01T10:18:00.356Z,53.09
2023-05-01T10:19:02.265Z,53.07
2023-05-01T10:20:00.268Z,52.85
2023-05-01T10:21:00.269Z,52.97
2023-05-01T10:22:00.315Z,53.41
2023-05-01T10:23:00.301Z,53.15
2023-05-01T10:24:00.209Z,52.95
2023-05-01T10:25:00.296Z,54.43
2023-05-01T10:26:00.842Z,52.15
2023-05-01T10:27:00.235Z,52.98
2023-05-01T10:28:00.166Z,53.22
2023-05-01T10:29:00.219Z,54.71
2023-05-01T10:30:00.146Z,54.29
2023-05-01T10:31:00.211Z,53.99
2023-05-01T10:32:00.179Z,51.42
2023-05-01T10:33:00.217Z,51.99
2023-05-01T10:34:00.089Z,50.76
2023-05-01T10:35:00.192Z,50.96
2023-05-01T10:36:00.047Z,51.10
2023-05-01T10:37:00.067Z,52.83
2023-05-01T10:38:00.019Z,53.83
2023-05-01T10:39:00.129Z,54.10
2023-05-01T10:40:00.042Z,52.37
2023-05-01T10:41:00.002Z,51.36
2023-05-01T10:41:59.971Z,52.65
2023-05-01T10:43:00.057Z,53.54
2023-05-01T10:43:59.946Z,53.70
2023-05-01T10:45:00.030Z,53.04
2023-05-01T10:45:59.952Z,52.77
2023-05-01T10:46:59.956Z,53.10
2023-05-01T10:48:00.110Z,53.21
2023-05-01T10:48:59.963Z,52.82
2023-05-01T10:50:00.154Z,53.02
2023-05-01T10:51:01.968Z,53.61
2023-05-01T10:51:59.877Z,52.09
2023-05-01T10:52:59.882Z,50.46
2023-05-01T10:53:59.800Z,50.80
2023-05-01T10:54:59.910Z,51.86
2023-05-01T10:55:59.768Z,52.50
2023-05-01T10:56:59.820Z,52.19
2023-05-01T10:57:59.780Z,53.07
2023-05-01T10:58:59.819Z,52.53
2023-05-01T10:59:59.719Z,51.62
2023-05-01T11:00:59.883Z,51.03
2023-05-01T11:02:00.078Z,53.58
2023-05-01T11:02:59.811Z,53.29
2023-05-01T11:03:59.718Z,52.57
2023-05-01T11:05:00.109Z,50.41
2023-05-01T11:05:59.749Z,49.62
2023-05-01T11:06:59.742Z,50.12
2023-05-01T11:07:59.619Z,50.54
2023-05-01T11:08:59.739Z,51.71
2023-05-01T11:09:59.651Z,50.34
2023-05-01T11:10:59.610Z,52.72
2023-05-01T11:11:59.577Z,50.85
2023-05-01T11:13:00.653Z,51.02
2023-05-01T11:13:59.536Z,51.03
2023-05-01T11:14:59.591Z,52.00
2023-05-01T11:15:59.574Z,52.00
2023-05-01T11:16:59.559Z,50.75
2023-05-01T11:17:59.589Z,51.36
2023-05-01T11:18:59.578Z,52.24
2023-05-01T11:19:59.581Z,51.84
2023-05-01T11:20:59.463Z,51.77
2023-05-01T11:21:59.463Z,51.01
2023-05-01T11:22:59.493Z,51.76
2023-05-01T11:23:59.404Z,50.37
2023-05-01T11:24:59.770Z,50.93
2023-05-01T11:25:59.468Z,50.08
2023-05-01T11:26:59.427Z,50.12
2023-05-01T11:27:59.379Z,50.02
2023-05-01T11:28:59.456Z,48.66
2023-05-01T11:29:59.324Z,49.10
2023-05-01T11:30:59.596Z,49.47
2023-05-01T11:31:59.306Z,50.47
2023-05-01T11:32:59.427Z,50.80
2023-05-01T11:33:59.527Z,49.16
2023-05-01T11:34:59.461Z,50.46
2023-05-01T11:35:59.244Z,50.62
2023-05-01T11:36:59.289Z,50.83
2023-05-01T11:37:59.212Z,49.16
2023-05-01T11:38:59.304Z,50.92
2023-05-01T11:39:59.204Z,48.60
2023-05-01T11:40:59.205Z,49.12
2023-05-01T11:41:59.182Z,50.06
2023-05-01T11:42:59.219Z,51.96
2023-05-01T11:43:59.130Z,49.72
2023-05-01T11:44:59.137Z,47.35
2023-05-01T11:45:59.181Z,48.98
2023-05-01T11:46:59.280Z,47.83
2023-05-01T11:48:00.550Z,48.87
2023-05-01T11:48:59.064Z,48.34
2023-05-01T11:50:00.133Z,49.49
2023-05-01T11:50:59.026Z,47.57
2023-05-01T11:51:59.177Z,49.35
2023-05-01T11:52:59.009Z,49.93
2023-05-01T11:53:59.104Z,48.42
2023-05-01T11:54:59.157Z,47.70
2023-05-01T11:55:59.009Z,49.37
2023-05-01T11:56:58.956Z,49.94
2023-05-01T11:57:59.084Z,49.67
2023-05-01T11:58:58.938Z,50.01
2023-05-01T11:59:58.940Z,50.11
2023-05-01T12:00:58.927Z,49.52
2023-05-01T12:01:58.953Z,48.55
2023-05-01T12:02:58.984Z,48.29
2023-05-01T12:03:58.995Z,50.47
2023-05-01T12:04:59.275Z,48.04
2023-05-01T12:05:58.937Z,49.34
2023-05-01T12:06:58.836Z,49.93
2023-05-01T12:07:58.912Z,50.15
2023-05-01T12:08:58.794Z,51.81
2023-05-01T12:09:58.875Z,50.82
2023-05-01T12:10:58.804Z,49.71
2023-05-01T12:11:58.827Z,48.18
2023-05-01T12:12:58.892Z,47.12
2023-05-01T12:13:58.860Z,48.03
2023-05-01T12:14:59.001Z,47.79
2023-05-01T12:15:58.909Z,49.52
2023-05-01T12:16:58.774Z,47.06
2023-05-01T12:17:58.814Z,47.49
2023-05-01T12:18:58.675Z,47.88
2023-05-01T12:19:58.673Z,49.00
2023-05-01T12:20:58.651Z,49.54
2023-05-01T12:21:59.673Z,48.12
2023-05-01T12:22:58.623Z,49.41
2023-05-01T12:23:58.704Z,48.09
2023-05-01T12:24:58.887Z,50.38
2023-05-01T12:25:58.649Z,48.37
2023-05-01T12:26:58.567Z,46.38
2023-05-01T12:27:58.580Z,45.73
2023-05-01T12:28:58.544Z,46.26
2023-05-01T12:29:58.543Z,46.19
2023-05-01T12:30:58.502Z,46.30
2023-05-01T12:31:58.592Z,48.69
2023-05-01T12:32:58.495Z,47.09
2023-05-01T12:33:58.622Z,48.78
2023-05-01T12:34:58.928Z,49.32
2023-05-01T12:35:58.484Z,47.71
2023-05-01T12:36:58.431Z,47.68
2023-05-01T12:37:58.519Z,49.01
2023-05-01T12:38:58.394Z,48.51
2023-05-01T12:39:58.475Z,48.10
2023-05-01T12:40:58.387Z,49.37
2023-05-01T12:41:58.437Z,48.98
2023-05-01T12:42:58.404Z,47.01
2023-05-01T12:43:58.453Z,48.92
2023-05-01T12:44:58.778Z,48.62
2023-05-01T12:45:58.487Z,49.03
2023-05-01T12:46:58.398Z,46.92
2023-05-01T12:47:58.486Z,49.45
2023-05-01T12:48:58.258Z,48.30
2023-05-01T12:49:58.609Z,49.39
2023-05-01T12:50:58.266Z,45.90
2023-05-01T12:51:58.356Z,47.31
2023-05-01T12:52:58.203Z,47.92
2023-05-01T12:53:58.292Z,44.83
2023-05-01T12:54:58.546Z,47.62